Latest Coastal Weather Observations for Ballina

IDN60701

Issued at 10:05 am EDT Tuesday 21 October 2014 (issued every 10 minutes, with the page automatically refreshed every 10 minutes)

About coastal observations | Map of coastal stations | Coastal observations for NSW | Marine services | Other Formats
Station Details ID: 058198 Name: BALLINA AIRPORT AWS Lat: -28.84 Lon: 153.56 Height: 1.3 m
Data from the previous 72 hours. | See also: Recent months at Ballina
Date/Time
EDT
Temp

°C
Wind Pressure Rain
since 9am
mm
Weather Cloud Vis
km
Sea
Height
m
Swell
Dir
 
Speed
knots
Gust
knots
hPa Trend Height
m
Period
s
Dir
21/10:00am 17.8 S 14 19 1029.2 - 0.8 - Partly cloudy 4 - - - -
21/09:56am 18.2 S 13 19 1029.2 - 0.4 - Partly cloudy 5 - - - -
21/09:30am 19.6 SSW 14 23 1028.8 - 0.0 - Partly cloudy 10 - - - -
21/09:00am 20.5 S 11 17 1028.5 - 4.4 - Cloudy 10 - - - -
21/08:30am 20.1 SSW 8 13 1028.2 - 4.4 - Partly cloudy 10 - - - -
21/08:00am 20.1 S 11 18 1027.9 - 4.4 - Partly cloudy 10 - - - -
21/07:30am 19.9 S 12 17 1027.6 - 4.4 - Partly cloudy 10 - - - -
21/07:00am 19.9 S 14 21 1027.4 - 4.4 - Partly cloudy 10 - - - -
21/06:30am 19.8 S 15 19 1027.0 - 4.4 - Cloudy 10 - - - -
21/06:00am 19.8 S 15 22 1026.6 - 4.4 - Cloudy 10 - - - -
21/05:30am 19.7 S 15 22 1026.4 - 4.4 - Partly cloudy 10 - - - -
21/05:00am 20.0 S 16 21 1026.1 - 4.4 - Cloudy 10 - - - -
21/04:30am 19.9 S 13 21 1025.9 - 4.4 - Partly cloudy 10 - - - -
21/04:00am 20.0 S 13 20 1026.0 - 4.4 - Cloudy 10 - - - -
21/03:30am 19.8 S 13 19 1026.1 - 4.4 - Partly cloudy 10 - - - -
21/03:00am 19.9 S 15 20 1026.1 - 4.4 - Cloudy 10 - - - -
21/02:30am 19.7 SSE 14 19 1026.3 - 4.4 - Partly cloudy 10 - - - -
21/02:00am 19.8 SSE 13 18 1026.4 - 4.4 - Partly cloudy 10 - - - -
21/01:43am 19.6 SSE 13 17 1026.4 - 4.4 - Partly cloudy 9 - - - -
21/01:30am 19.3 SE 11 14 1026.4 - 4.2 - Partly cloudy 5 - - - -
21/01:15am 19.1 SW 7 10 1026.4 - 3.0 - Partly cloudy 5 - - - -
21/01:08am 19.0 SW 8 11 1026.5 - 2.0 - Partly cloudy 8 - - - -
21/01:00am 19.0 SW 10 14 1026.6 - 2.0 - Partly cloudy 8 - - - -
21/12:30am 19.0 SSW 10 18 1027.1 - 2.0 - Partly cloudy 8 - - - -
21/12:28am 18.9 SSW 10 18 1027.1 - 2.0 - Partly cloudy 8 - - - -
21/12:27am 18.9 SSW 10 16 1027.2 - 2.0 - Partly cloudy 8 - - - -
21/12:11am 18.8 SSW 11 16 1027.4 - 2.0 - Partly cloudy 7 - - - -
21/12:10am 18.7 SSW 11 16 1027.4 - 2.0 - Partly cloudy 7 - - - -
21/12:02am 18.9 SSW 9 15 1027.4 - 2.0 - Partly cloudy 7 - - - -
21/12:00am 18.9 SSW 9 14 1027.4 - 2.0 Rain Cloudy 7 - - - -
 
Date/Time
EDT
Temp

°C
Wind Pressure Rain
since 9am
mm
Weather Cloud Vis
km
Sea
Height
m
Swell
Dir
 
Speed
knots
Gust
knots
hPa Trend Height
m
Period
s
Dir
20/11:52pm 18.9 SSW 8 13 1027.5 - 1.8 - Partly cloudy 5 - - - -
20/11:43pm 19.0 SSW 12 17 1027.7 - 1.8 - Partly cloudy 5 - - - -
20/11:30pm 19.2 SSW 10 15 1027.6 - 1.4 - Partly cloudy 9 - - - -
20/11:00pm 19.2 SSW 10 17 1027.7 - 1.4 - Partly cloudy 8 - - - -
20/10:30pm 19.2 S 11 15 1027.6 - 1.4 - Partly cloudy 8 - - - -
20/10:19pm 19.2 SSW 9 15 1027.5 - 1.4 - Partly cloudy 8 - - - -
20/10:01pm 19.5 S 13 23 1027.6 - 1.2 - Partly cloudy 5 - - - -
20/10:00pm 19.5 S 13 23 1027.6 - 1.0 - Partly cloudy 6 - - - -
20/09:30pm 19.7 S 11 16 1027.4 - 0.6 - Partly cloudy 8 - - - -
20/09:21pm 19.5 S 9 15 1027.4 - 0.6 - Partly cloudy 8 - - - -
20/09:19pm 19.6 S 9 15 1027.4 - 0.6 - Partly cloudy 8 - - - -
20/09:06pm 19.3 S 9 15 1027.2 - 0.6 - Partly cloudy 5 - - - -
20/09:00pm 19.5 S 14 21 1027.2 - 0.4 Rain Cloudy 5 - - - -
20/08:57pm 19.7 S 13 21 1027.2 - 0.4 - Partly cloudy 5 - - - -
20/08:30pm 20.3 S 14 19 1026.7 - 0.0 - Partly cloudy 8 - - - -
20/08:00pm 20.5 S 7 10 1026.4 - 0.0 - Cloudy 10 - - - -
20/07:30pm 20.2 S 8 10 1026.0 - 0.0 - Cloudy 10 - - - -
20/07:00pm 19.7 SSE 7 9 1025.5 - 0.0 - Partly cloudy 10 - - - -
20/06:30pm 20.2 S 7 11 1025.3 - 0.0 - - 10 - - - -
20/06:00pm 21.3 S 8 10 1025.0 - 0.0 - - 10 - - - -
20/05:30pm 22.4 SSE 9 12 1024.4 - 0.0 - - 10 - - - -
20/05:00pm 22.6 E 6 8 1024.0 - 0.0 - - 10 - - - -
20/04:30pm 22.8 ENE 8 10 1023.6 - 0.0 - - 10 - - - -
20/04:00pm 23.4 ENE 7 10 1023.3 - 0.0 - - 10 - - - -
20/03:30pm 23.1 NE 9 12 1023.0 - 0.0 - - 10 - - - -
20/03:00pm 23.1 NE 10 14 1023.2 - 0.0 - - 10 - - - -
20/02:30pm 23.1 NE 12 16 1023.5 - 0.0 - - 10 - - - -
20/02:00pm 23.0 NNE 13 17 1023.6 - 0.0 - - 10 - - - -
20/01:30pm 23.7 NE 14 18 1023.8 - 0.0 - - 10 - - - -
20/01:00pm 23.3 NE 13 17 1024.0 - 0.0 - - 10 - - - -
20/12:30pm 23.4 NE 13 16 1024.1 - 0.0 - - 10 - - - -
20/12:00pm 23.4 NE 12 16 1024.4 - 0.0 - - 10 - - - -
20/11:30am 22.9 NE 13 17 1024.7 - 0.0 - - 10 - - - -
20/11:00am 23.2 ENE 12 15 1024.8 - 0.0 - - 10 - - - -
20/10:30am 23.1 NE 8 12 1025.1 - 0.0 - - 10 - - - -
20/10:00am 22.2 NNE 7 11 1025.4 - 0.0 - - 10 - - - -
20/09:30am 21.6 NNE 6 9 1025.2 - 0.0 - - 10 - - - -
20/09:00am 20.8 N 5 10 1025.3 - 0.0 - - 10 - - - -
20/08:30am 19.4 NW 3 5 1025.5 - 0.0 - - 10 - - - -
20/08:00am 16.7 NNW 2 4 1025.2 - 0.0 - - 10 - - - -
20/07:30am 14.6 CALM 0 0 1025.2 - 0.0 - - 10 - - - -
20/07:00am 12.7 N 1 2 1025.1 - 0.0 - - 10 - - - -
20/06:30am 10.2 CALM 0 0 1025.0 - 0.0 - - 10 - - - -
20/06:00am 9.9 N 3 4 1024.7 - 0.0 - - 10 - - - -
20/05:30am 10.6 CALM 0 3 1024.6 - 0.0 - - 10 - - - -
20/05:00am 10.7 CALM 0 0 1024.7 - 0.0 - - 10 - - - -
20/04:30am 10.6 CALM 0 0 1024.6 - 0.0 - - 10 - - - -
20/04:00am 10.5 CALM 0 0 1024.6 - 0.0 - - 10 - - - -
20/03:30am 10.9 CALM 0 0 1024.7 - 0.0 - - 10 - - - -
20/03:00am 11.2 CALM 0 0 1024.9 - 0.0 - - 10 - - - -
20/02:30am 11.7 CALM 0 0 1025.2 - 0.0 - - 10 - - - -
20/02:23am 11.8 CALM 0 0 1025.3 - 0.0 - - 10 - - - -
20/02:02am 12.0 CALM 0 0 1025.5 - 0.0 - - 5 - - - -
20/02:00am 11.9 CALM 0 0 1025.5 - 0.0 - - 8 - - - -
20/01:30am 12.2 CALM 0 0 1026.0 - 0.0 - - 10 - - - -
20/01:00am 12.3 CALM 0 0 1026.3 - 0.0 - - 10 - - - -
20/12:30am 12.9 CALM 0 0 1026.6 - 0.0 - - 10 - - - -
20/12:00am 12.9 CALM 0 0 1026.7 - 0.0 - - 10 - - - -
 
Date/Time
EDT
Temp

°C
Wind Pressure Rain
since 9am
mm
Weather Cloud Vis
km
Sea
Height
m
Swell
Dir
 
Speed
knots
Gust
knots
hPa Trend Height
m
Period
s
Dir
19/11:30pm 13.3 NNW 1 3 1026.8 - 0.0 - - 10 - - - -
19/11:00pm 13.3 CALM 0 0 1027.0 - 0.0 - - 10 - - - -
19/10:30pm 14.2 CALM 0 0 1026.7 - 0.0 - - 10 - - - -
19/10:00pm 14.4 CALM 0 0 1026.6 - 0.0 - - 10 - - - -
19/09:30pm 15.0 N 3 4 1026.6 - 0.0 - - 10 - - - -
19/09:00pm 15.4 NNW 2 4 1026.3 - 0.0 - - 10 - - - -
19/08:30pm 16.7 NE 4 4 1026.0 - 0.0 - - 10 - - - -
19/08:00pm 17.0 ENE 3 5 1025.7 - 0.0 - - 10 - - - -
19/07:30pm 17.1 ENE 4 6 1025.4 - 0.0 - - 10 - - - -
19/07:00pm 17.7 ENE 6 8 1025.2 - 0.0 - - 10 - - - -
19/06:30pm 19.7 E 7 10 1025.1 - 0.0 - - 10 - - - -
19/06:00pm 20.5 E 8 11 1024.9 - 0.0 - - 10 - - - -
19/05:30pm 21.2 E 9 13 1024.8 - 0.0 - - 10 - - - -
19/05:00pm 21.3 E 10 14 1024.6 - 0.0 - - 10 - - - -
19/04:30pm 21.6 E 9 12 1024.6 - 0.0 - - 10 - - - -
19/04:00pm 22.0 ESE 9 15 1024.7 - 0.0 - - 10 - - - -
19/03:30pm 21.8 SE 10 15 1024.9 - 0.0 - - 10 - - - -
19/03:00pm 21.7 ESE 11 14 1025.2 - 0.0 - - 10 - - - -
19/02:30pm 21.9 E 11 16 1025.6 - 0.0 - - 10 - - - -
19/02:00pm 22.1 SE 9 17 1026.2 - 0.0 - - 10 - - - -
19/01:30pm 21.7 SE 9 16 1026.8 - 0.0 - - 10 - - - -
19/01:00pm 21.9 ESE 11 15 1027.1 - 0.0 - - 10 - - - -
19/12:30pm 21.6 SE 10 14 1027.4 - 0.0 - - 10 - - - -
19/12:00pm 22.3 SE 10 15 1027.6 - 0.0 - - 10 - - - -
19/11:30am 21.9 SSE 10 14 1027.9 - 0.0 - - 10 - - - -
19/11:00am 22.4 S 11 14 1028.2 - 0.0 - - 10 - - - -
19/10:30am 21.8 SE 9 14 1028.5 - 0.0 - - 10 - - - -
19/10:00am 21.3 SSE 7 12 1028.7 - 0.0 - Partly cloudy 10 - - - -
19/09:30am 21.5 SE 9 12 1028.6 - 0.0 - Cloudy 10 - - - -
19/09:00am 20.1 S 5 7 1028.4 - 0.0 - Partly cloudy 10 - - - -
19/08:30am 19.9 SW 6 8 1028.3 - 0.0 - Partly cloudy 10 - - - -
19/08:00am 17.4 WSW 5 7 1028.1 - 0.0 - Partly cloudy 10 - - - -
19/07:30am 17.1 W 4 5 1027.7 - 0.0 - Partly cloudy 10 - - - -
19/07:00am 16.2 W 5 6 1027.4 - 0.0 - Partly cloudy 10 - - - -
19/06:30am 15.9 WSW 4 5 1027.2 - 0.0 - Partly cloudy 10 - - - -
19/06:00am 15.2 W 4 4 1026.9 - 0.0 - Cloudy 10 - - - -
19/05:30am 15.1 W 5 6 1026.7 - 0.0 - Partly cloudy 10 - - - -
19/05:00am 16.1 SW 4 6 1026.7 - 0.0 - Partly cloudy 10 - - - -
19/04:30am 16.1 WSW 4 6 1026.5 - 0.0 - Cloudy 10 - - - -
19/04:00am 15.9 W 5 7 1026.3 - 0.0 - Cloudy 10 - - - -
19/03:30am 16.6 WSW 6 8 1026.3 - 0.0 - Cloudy 10 - - - -
19/03:00am 17.7 SE 3 5 1026.5 - 0.0 - Cloudy 10 - - - -
19/02:30am 17.7 SE 5 6 1026.6 - 0.0 - Partly cloudy 10 - - - -
19/02:00am 18.1 ESE 4 5 1026.9 - 0.0 - Cloudy 10 - - - -
19/01:30am 18.2 ESE 6 7 1027.1 - 0.0 - Partly cloudy 10 - - - -
19/01:00am 18.3 SE 5 8 1027.6 - 0.0 - Partly cloudy 10 - - - -
19/12:30am 18.5 SE 6 9 1027.9 - 0.0 - Partly cloudy 10 - - - -
19/12:00am 18.8 ESE 6 8 1028.0 - 0.0 - Cloudy 10 - - - -
 
Date/Time
EDT
Temp

°C
Wind Pressure Rain
since 9am
mm
Weather Cloud Vis
km
Sea
Height
m
Swell
Dir
 
Speed
knots
Gust
knots
hPa Trend Height
m
Period
s
Dir
18/11:30pm 19.1 ESE 8 12 1028.0 - 0.0 - Partly cloudy 10 - - - -
18/11:00pm 18.9 ESE 8 12 1028.1 - 0.0 - Partly cloudy 10 - - - -
18/10:30pm 18.8 SE 7 10 1028.1 - 0.0 - Cloudy 10 - - - -
18/10:00pm 18.5 ESE 6 9 1028.0 - 0.0 - Partly cloudy 10 - - - -
18/09:30pm 18.7 SE 7 11 1027.9 - 0.0 - Partly cloudy 10 - - - -
18/09:00pm 17.9 SE 5 7 1027.8 - 0.0 - Cloudy 10 - - - -
18/08:30pm 17.9 SE 8 10 1027.6 - 0.0 - Partly cloudy 10 - - - -
18/08:00pm 17.5 SSE 8 11 1027.4 - 0.0 - - 10 - - - -
18/07:30pm 17.8 SE 8 10 1027.1 - 0.0 - Partly cloudy 10 - - - -
18/07:00pm 18.1 SSE 10 14 1026.7 - 0.0 - Partly cloudy 10 - - - -
18/06:30pm 19.0 S 9 12 1026.3 - 0.0 - Partly cloudy 10 - - - -
18/06:00pm 19.1 S 11 13 1025.9 - 0.0 - Mostly cloudy 10 - - - -
18/05:30pm 19.8 SSE 13 17 1025.8 - 0.0 - Partly cloudy 10 - - - -
18/05:00pm 20.0 S 13 17 1025.7 - 0.0 - Partly cloudy 10 - - - -
18/04:30pm 20.8 SSE 13 17 1025.6 - 0.0 - Partly cloudy 10 - - - -
18/04:00pm 20.1 SSE 14 19 1025.7 - 0.0 - Partly cloudy 10 - - - -
18/03:30pm 20.4 S 16 22 1025.8 - 0.0 - Partly cloudy 10 - - - -
18/03:00pm 20.8 S 14 20 1025.9 - 0.0 - Cloudy 10 - - - -
18/02:30pm 20.7 S 15 20 1026.2 - 0.0 - Cloudy 10 - - - -
18/02:00pm 20.4 S 16 21 1026.4 - 0.0 - Cloudy 10 - - - -
18/01:30pm 21.0 S 14 21 1026.6 - 0.0 - Partly cloudy 10 - - - -
18/01:00pm 19.7 S 14 19 1027.0 - 0.0 - Partly cloudy 10 - - - -
18/12:30pm 20.7 S 14 19 1027.1 - 0.0 - Partly cloudy 10 - - - -
18/12:00pm 20.2 S 13 20 1027.3 - 0.0 - Cloudy 10 - - - -
18/11:30am 19.5 S 17 24 1027.4 - 0.0 - Partly cloudy 10 - - - -
18/11:00am 20.7 S 18 25 1027.4 - 0.0 - Partly cloudy 10 - - - -
18/10:30am 20.3 SSW 15 20 1027.3 - 0.0 - Partly cloudy 10 - - - -

Other Formats:

Comma delimited format used in spreadsheet applications
http://www.bom.gov.au/fwo/IDN60701/IDN60701.94596.axf

JavaScript Object Notation format (JSON) in row-major order
http://www.bom.gov.au/fwo/IDN60701/IDN60701.94596.json